Time;durP1;ratioP1;P1;durP2;ratioP2;P2;SDS_P1;SDS_P2;PMS_P1;PMS_P2;Temp;Humidity;BMP_temperature;BMP_pressure;BME280_temperature;BME280_humidity;BME280_pressure;Samples;Min_cycle;Max_cycle;Signal;HPM_P1;HPM_P2
2024/04/16 00:01:24;;;;;;;12.27;4.80;;;;;;;14.98;100.00;99078.63;1470868;89;21417;-79
2024/04/16 00:03:52;;;;;;;17.67;5.33;;;;;;;14.95;100.00;99075.06;1461727;89;21464;-79
2024/04/16 00:06:19;;;;;;;23.60;4.03;;;;;;;14.94;100.00;99072.62;1456600;89;21469;-80
2024/04/16 00:08:50;;;;;;;20.53;5.07;;;;;;;14.91;100.00;99078.36;1443404;89;21325;-80
2024/04/16 00:11:17;;;;;;;15.53;4.33;;;;;;;14.88;100.00;99079.59;1450288;88;22283;-80
2024/04/16 00:13:44;;;;;;;18.50;4.97;;;;;;;14.87;100.00;99076.12;1445922;89;21642;-81
2024/04/16 00:16:12;;;;;;;23.13;6.00;;;;;;;14.87;100.00;99080.11;1451300;89;21454;-81
2024/04/16 00:18:39;;;;;;;22.47;4.67;;;;;;;14.84;100.00;99087.16;1458563;89;21298;-80
2024/04/16 00:21:06;;;;;;;19.07;4.73;;;;;;;14.79;100.00;99089.66;1463973;88;22517;-80
2024/04/16 00:23:33;;;;;;;11.33;3.53;;;;;;;14.76;100.00;99086.08;1460717;89;21403;-80
2024/04/16 00:26:01;;;;;;;22.07;5.03;;;;;;;14.75;100.00;99085.75;1456300;89;21505;-80
2024/04/16 00:28:30;;;;;;;22.80;4.13;;;;;;;14.72;100.00;99080.84;1453797;89;21399;-80
2024/04/16 00:30:57;;;;;;;20.53;5.03;;;;;;;14.73;100.00;99087.82;1459456;89;21372;-80
2024/04/16 00:33:24;;;;;;;16.47;4.20;;;;;;;14.71;100.00;99096.52;1451017;88;21392;-80
2024/04/16 00:35:52;;;;;;;18.43;5.87;;;;;;;14.70;100.00;99102.85;1453384;89;21444;-80
2024/04/16 00:38:19;;;;;;;27.83;5.43;;;;;;;14.68;100.00;99099.59;1468258;89;21380;-79
2024/04/16 00:40:46;;;;;;;27.13;5.67;;;;;;;14.64;100.00;99102.35;1434192;89;21374;-79
2024/04/16 00:43:20;;;;;;;20.90;5.10;;;;;;;14.65;100.00;99098.16;1446959;89;21388;-80
2024/04/16 00:45:54;;;;;;;17.67;4.77;;;;;;;14.68;100.00;99106.26;1451988;88;21473;-79
2024/04/16 00:48:24;;;;;;;15.20;4.70;;;;;;;14.66;100.00;99117.62;1455548;89;21372;-80
2024/04/16 00:50:54;;;;;;;20.12;4.80;;;;;;;14.62;100.00;99131.05;1455594;88;21399;-79
2024/04/16 00:53:23;;;;;;;23.43;5.93;;;;;;;14.52;100.00;99141.27;1454241;89;21394;-79
2024/04/16 00:55:51;;;;;;;20.73;6.60;;;;;;;14.50;100.00;99142.80;1461219;89;22340;-80
2024/04/16 00:58:20;;;;;;;21.17;5.80;;;;;;;14.53;100.00;99149.55;1462031;88;21403;-79
2024/04/16 01:00:47;;;;;;;22.40;6.43;;;;;;;14.51;100.00;99163.58;1462265;89;21359;-79
2024/04/16 01:03:15;;;;;;;26.17;5.97;;;;;;;14.45;100.00;99174.01;1455485;88;21902;-79
2024/04/16 01:05:42;;;;;;;23.33;5.77;;;;;;;14.44;100.00;99177.70;1457230;89;22267;-80
2024/04/16 01:08:11;;;;;;;26.13;5.73;;;;;;;14.44;100.00;99193.67;1454500;88;21347;-79
2024/04/16 01:10:40;;;;;;;24.10;4.50;;;;;;;14.42;100.00;99194.38;1447272;89;21380;-80
2024/04/16 01:13:08;;;;;;;24.97;4.40;;;;;;;14.39;100.00;99194.78;1459710;89;21336;-80
2024/04/16 01:15:36;;;;;;;21.17;5.53;;;;;;;14.40;100.00;99191.61;1458860;89;22393;-81
2024/04/16 01:18:06;;;;;;;21.07;3.60;;;;;;;14.43;100.00;99178.70;1463901;88;21314;-80
2024/04/16 01:20:34;;;;;;;17.50;3.90;;;;;;;14.45;100.00;99174.01;1461974;88;21535;-80
2024/04/16 01:23:02;;;;;;;22.13;6.03;;;;;;;14.45;100.00;99181.99;1461724;88;21440;-80
2024/04/16 01:25:33;;;;;;;23.50;5.20;;;;;;;14.47;100.00;99176.45;1462845;89;21468;-80
2024/04/16 01:28:01;;;;;;;28.03;5.53;;;;;;;14.47;100.00;99175.63;1458976;89;21380;-80
2024/04/16 01:30:28;;;;;;;28.67;6.60;;;;;;;14.47;100.00;99171.13;1451770;89;21355;-80
2024/04/16 01:32:55;;;;;;;19.90;4.87;;;;;;;14.47;100.00;99164.98;1451302;89;21483;-80
2024/04/16 01:35:22;;;;;;;25.17;5.47;;;;;;;14.45;100.00;99167.87;1460876;89;21292;-80
2024/04/16 01:37:49;;;;;;;25.87;8.13;;;;;;;14.42;100.00;99162.95;1448622;89;21965;-80
2024/04/16 01:40:17;;;;;;;25.53;6.17;;;;;;;14.39;100.00;99169.50;1463923;89;22186;-80
2024/04/16 01:42:44;;;;;;;25.87;5.33;;;;;;;14.34;100.00;99171.13;1450271;89;21432;-80
2024/04/16 01:45:11;;;;;;;19.80;5.90;;;;;;;14.26;100.00;99169.47;1453704;89;21355;-79
2024/04/16 01:47:38;;;;;;;19.60;4.73;;;;;;;14.20;100.00;99164.95;1454236;89;21348;-80
2024/04/16 01:50:06;;;;;;;23.83;6.03;;;;;;;14.13;100.00;99164.95;1454930;89;21480;-80
2024/04/16 01:52:33;;;;;;;23.27;5.90;;;;;;;14.09;100.00;99161.03;1452160;89;21447;-80
2024/04/16 01:55:00;;;;;;;20.20;5.27;;;;;;;14.06;100.00;99155.30;1450897;89;21483;-80
2024/04/16 01:57:27;;;;;;;27.27;5.87;;;;;;;14.05;100.00;99150.50;1457402;88;21311;-80
2024/04/16 01:59:54;;;;;;;26.50;6.57;;;;;;;14.06;100.00;99147.33;1448300;89;21421;-80
2024/04/16 02:02:23;;;;;;;18.37;5.37;;;;;;;14.07;100.00;99151.61;1460101;88;21311;-80
2024/04/16 02:04:50;;;;;;;25.03;5.13;;;;;;;14.09;100.00;99149.58;1446552;89;21473;-80
2024/04/16 02:07:17;;;;;;;18.77;4.83;;;;;;;14.09;100.00;99149.58;1461972;89;21463;-82
2024/04/16 02:09:45;;;;;;;18.40;5.83;;;;;;;14.11;100.00;99140.89;1460331;89;21381;-83
2024/04/16 02:12:12;;;;;;;17.13;4.93;;;;;;;14.14;100.00;99143.15;1467758;88;21348;-81
2024/04/16 02:14:39;;;;;;;21.00;5.57;;;;;;;14.16;100.00;99136.61;1444896;90;21450;-80
2024/04/16 02:17:06;;;;;;;17.00;5.80;;;;;;;14.20;100.00;99134.35;1446904;89;21450;-80
2024/04/16 02:19:34;;;;;;;15.63;5.53;;;;;;;14.23;100.00;99123.30;1451074;89;23639;-81
2024/04/16 02:22:01;;;;;;;27.70;6.03;;;;;;;14.25;100.00;99129.25;1465217;89;21388;-81
2024/04/16 02:24:29;;;;;;;23.37;5.43;;;;;;;14.28;100.00;99132.84;1462874;89;21440;-80
2024/04/16 02:26:57;;;;;;;31.17;4.67;;;;;;;14.25;100.00;99135.91;1463701;89;21247;-81
2024/04/16 02:29:25;;;;;;;29.03;7.70;;;;;;;14.22;100.00;99129.66;1466921;89;21358;-81
2024/04/16 02:31:53;;;;;;;17.87;5.27;;;;;;;14.20;100.00;99133.02;1462346;89;21350;-80
2024/04/16 02:34:20;;;;;;;30.13;5.00;;;;;;;14.17;100.00;99125.45;1466113;89;22238;-81
2024/04/16 02:36:47;;;;;;;23.93;5.70;;;;;;;14.19;100.00;99120.75;1455321;89;21275;-81
2024/04/16 02:39:16;;;;;;;15.57;5.27;;;;;;;14.17;100.00;99121.45;1461366;88;22456;-80
2024/04/16 02:41:43;;;;;;;23.87;5.37;;;;;;;14.15;100.00;99128.81;1459627;89;21384;-81
2024/04/16 02:44:10;;;;;;;18.53;4.63;;;;;;;14.10;100.00;99129.44;1453081;89;21528;-81
2024/04/16 02:46:37;;;;;;;20.93;4.83;;;;;;;14.09;100.00;99125.63;1456018;88;21469;-80
2024/04/16 02:49:05;;;;;;;21.47;5.17;;;;;;;14.07;100.00;99122.34;1459908;88;21394;-79
2024/04/16 02:51:32;;;;;;;30.60;6.87;;;;;;;14.05;100.00;99123.08;1461963;88;21402;-79
2024/04/16 02:53:59;;;;;;;35.80;5.60;;;;;;;14.02;100.00;99118.17;1440798;89;21983;-79
2024/04/16 02:56:26;;;;;;;18.10;4.30;;;;;;;13.97;100.00;99117.43;1471163;89;22331;-79
2024/04/16 02:58:54;;;;;;;23.87;5.23;;;;;;;13.94;100.00;99113.84;1468825;89;21380;-77
2024/04/16 03:01:21;;;;;;;20.00;5.17;;;;;;;13.90;100.00;99110.77;1451053;89;21325;-79
2024/04/16 03:03:56;;;;;;;24.30;6.97;;;;;;;13.89;100.00;99109.63;1446332;89;21407;-79
2024/04/16 03:06:23;;;;;;;25.80;6.37;;;;;;;13.88;100.00;99103.50;1454378;89;21285;-80
2024/04/16 03:08:51;;;;;;;21.63;4.57;;;;;;;13.88;100.00;99107.48;1457680;89;22268;-79
2024/04/16 03:11:18;;;;;;;25.07;4.50;;;;;;;13.86;100.00;99108.19;1452765;89;21531;-79
2024/04/16 03:13:46;;;;;;;20.17;5.93;;;;;;;13.87;100.00;99107.19;1453677;89;21396;-79
2024/04/16 03:16:13;;;;;;;25.83;5.30;;;;;;;13.86;100.00;99112.18;1465722;88;22282;-79
2024/04/16 03:18:40;;;;;;;19.00;6.47;;;;;;;13.86;100.00;99110.84;1465004;89;21387;-79
2024/04/16 03:21:08;;;;;;;27.40;5.00;;;;;;;13.87;100.00;99113.02;1441774;89;22289;-79
2024/04/16 03:23:35;;;;;;;20.27;5.63;;;;;;;13.82;100.00;99122.92;1465124;89;21462;-78
2024/04/16 03:26:04;;;;;;;15.17;5.03;;;;;;;13.76;100.00;99123.21;1442940;89;21388;-78
2024/04/16 03:28:31;;;;;;;24.10;4.57;;;;;;;13.70;100.00;99128.52;1458196;89;21288;-79
2024/04/16 03:30:59;;;;;;;24.67;7.13;;;;;;;13.68;100.00;99126.55;1468546;88;21380;-79
2024/04/16 03:33:26;;;;;;;20.90;4.67;;;;;;;13.69;100.00;99125.52;1463018;89;21566;-78
2024/04/16 03:35:54;;;;;;;19.73;5.83;;;;;;;13.70;100.00;99120.53;1454803;89;22274;-79
2024/04/16 03:38:22;;;;;;;19.73;5.63;;;;;;;13.69;100.00;99114.38;1450638;89;21365;-80
2024/04/16 03:41:03;;;;;;;19.20;4.60;;;;;;;13.69;100.00;99107.73;1465342;89;22186;-79
2024/04/16 03:43:31;;;;;;;;;;;;;;;13.67;100.00;99101.00;1462575;89;21595;-79
2024/04/16 03:46:05;;;;;;;16.83;5.13;;;;;;;13.62;100.00;99103.43;1460565;88;20874;-80
2024/04/16 03:48:32;;;;;;;18.73;4.93;;;;;;;13.57;100.00;99106.67;1445960;89;21498;-79
2024/04/16 03:50:59;;;;;;;15.53;4.80;;;;;;;13.55;100.00;99115.34;1458868;89;21395;-79
2024/04/16 03:53:27;;;;;;;26.80;5.33;;;;;;;13.56;100.00;99119.67;1441678;89;22213;-80
2024/04/16 03:55:58;;;;;;;14.33;4.27;;;;;;;13.52;100.00;99119.25;1454749;89;21348;-79
2024/04/16 03:58:23;;;;;;;13.37;4.20;;;;;;;13.51;100.00;99125.56;1453076;89;21371;-79
2024/04/16 04:00:59;;;;;;;24.40;6.33;;;;;;;13.50;100.00;99126.59;1445493;89;22230;-78
2024/04/16 04:03:27;;;;;;;19.60;4.37;;;;;;;13.49;100.00;99138.73;1452553;89;21358;-82
2024/04/16 04:05:55;;;;;;;20.77;4.90;;;;;;;13.49;100.00;99136.92;1462247;89;22504;-81
2024/04/16 04:08:23;;;;;;;18.30;5.23;;;;;;;13.50;100.00;99137.22;1458351;89;21550;-81
2024/04/16 04:10:50;;;;;;;17.73;5.30;;;;;;;13.50;100.00;99127.92;1451048;89;22172;-81
2024/04/16 04:13:17;;;;;;;17.33;4.47;;;;;;;13.51;100.00;99134.05;1462783;89;21292;-82
2024/04/16 04:15:44;;;;;;;17.87;4.53;;;;;;;13.52;100.00;99139.19;1463165;89;21366;-81
2024/04/16 04:18:11;;;;;;;22.13;5.20;;;;;;;13.53;100.00;99143.47;1451638;89;21347;-80
2024/04/16 04:20:39;;;;;;;15.93;4.73;;;;;;;13.52;100.00;99139.19;1443048;90;21297;-81
2024/04/16 04:23:07;;;;;;;24.17;5.07;;;;;;;13.52;100.00;99145.83;1459069;89;21299;-82
2024/04/16 04:25:35;;;;;;;15.33;4.83;;;;;;;13.53;100.00;99152.77;1458579;89;21397;-80
2024/04/16 04:28:03;;;;;;;18.47;5.17;;;;;;;13.53;100.00;99143.47;1456091;89;22332;-80
2024/04/16 04:30:30;;;;;;;10.40;3.90;;;;;;;13.53;100.00;99138.67;1464198;89;21299;-81
2024/04/16 04:32:58;;;;;;;10.93;3.23;;;;;;;13.51;100.00;99129.55;1464192;89;22338;-82
2024/04/16 04:35:25;;;;;;;12.23;3.40;;;;;;;13.49;100.00;99128.95;1450669;89;21355;-81
2024/04/16 04:37:53;;;;;;;12.20;3.83;;;;;;;13.50;100.00;99121.28;1447458;90;21274;-82
2024/04/16 04:40:20;;;;;;;14.03;3.10;;;;;;;13.50;100.00;99111.16;1463694;89;21365;-82
2024/04/16 04:42:48;;;;;;;19.33;5.13;;;;;;;13.49;100.00;99103.70;1453596;89;21401;-81
2024/04/16 04:45:16;;;;;;;12.70;3.70;;;;;;;13.51;100.00;99105.62;1447737;89;21340;-81
2024/04/16 04:47:43;;;;;;;14.30;3.53;;;;;;;13.51;100.00;99114.12;1451433;89;22364;-82
2024/04/16 04:50:12;;;;;;;14.20;3.80;;;;;;;13.50;100.00;99118.62;1459525;89;21348;-81
2024/04/16 04:52:39;;;;;;;17.90;3.97;;;;;;;13.49;100.00;99109.02;1447252;89;22112;-82
2024/04/16 04:55:06;;;;;;;10.93;4.03;;;;;;;13.49;100.00;99110.34;1461844;88;21877;-80
2024/04/16 04:57:34;;;;;;;12.53;3.50;;;;;;;13.48;100.00;99100.72;1424171;90;21455;-81
